createdAt,value
2023-02-04T00:00:24.258Z,81.17
2023-02-04T00:02:52.755Z,81.48
2023-02-04T00:05:22.017Z,81.78
2023-02-04T00:07:49.741Z,81.46
2023-02-04T00:10:18.891Z,81.33
2023-02-04T00:12:46.601Z,81.61
2023-02-04T00:15:14.301Z,81.62
2023-02-04T00:17:42.005Z,81.61
2023-02-04T00:20:10.613Z,81.77
2023-02-04T00:22:39.728Z,81.60
2023-02-04T00:25:08.746Z,81.80
2023-02-04T00:27:36.518Z,81.88
2023-02-04T00:30:04.391Z,81.88
2023-02-04T00:32:32.080Z,81.85
2023-02-04T00:34:59.766Z,81.87
2023-02-04T00:37:27.521Z,82.01
2023-02-04T00:39:56.655Z,82.19
2023-02-04T00:42:24.497Z,82.17
2023-02-04T00:44:52.314Z,81.88
2023-02-04T00:47:20.027Z,82.32
2023-02-04T00:49:47.798Z,82.45
2023-02-04T00:52:15.474Z,82.46
2023-02-04T00:54:43.132Z,82.48
2023-02-04T00:57:12.232Z,82.45
2023-02-04T00:59:39.867Z,82.73
2023-02-04T01:02:07.660Z,82.71
2023-02-04T01:04:35.456Z,82.79
2023-02-04T01:07:03.211Z,82.63
2023-02-04T01:09:30.932Z,82.60
2023-02-04T01:11:58.602Z,83.12
2023-02-04T01:14:27.709Z,82.75
2023-02-04T01:16:55.375Z,83.01
2023-02-04T01:19:23.076Z,82.81
2023-02-04T01:21:50.751Z,82.81
2023-02-04T01:24:18.370Z,83.10
2023-02-04T01:26:46.026Z,83.18
2023-02-04T01:29:13.782Z,83.19
2023-02-04T01:31:42.889Z,83.53
2023-02-04T01:34:10.618Z,83.22
2023-02-04T01:36:38.327Z,83.47
2023-02-04T01:39:06.423Z,83.58
2023-02-04T01:41:34.158Z,83.65
2023-02-04T01:44:01.823Z,83.46
2023-02-04T01:46:29.548Z,83.46
2023-02-04T01:48:58.647Z,83.41
2023-02-04T01:51:28.784Z,83.27
2023-02-04T01:53:56.940Z,83.41
2023-02-04T01:56:26.813Z,83.42
2023-02-04T01:58:55.896Z,83.66
2023-02-04T02:01:37.675Z,83.66
2023-02-04T02:04:06.895Z,83.73
2023-02-04T02:06:35.025Z,83.56
2023-02-04T02:09:03.060Z,83.87
2023-02-04T02:11:30.946Z,83.92
2023-02-04T02:13:58.648Z,83.45
2023-02-04T02:16:26.404Z,83.73
2023-02-04T02:18:54.574Z,84.08
2023-02-04T02:21:32.973Z,83.77
2023-02-04T02:24:03.464Z,84.17
2023-02-04T02:26:31.131Z,83.95
2023-02-04T02:28:58.860Z,84.01
2023-02-04T02:31:26.771Z,84.22
2023-02-04T02:33:54.527Z,84.25
2023-02-04T02:36:23.661Z,84.26
2023-02-04T02:38:51.428Z,83.98
2023-02-04T02:41:20.532Z,84.24
2023-02-04T02:43:48.274Z,84.34
2023-02-04T02:46:15.978Z,84.02
2023-02-04T02:48:43.729Z,84.23
2023-02-04T02:51:11.414Z,84.31
2023-02-04T02:53:39.106Z,84.05
2023-02-04T02:56:07.063Z,84.38
2023-02-04T02:58:37.317Z,84.35
2023-02-04T03:01:07.065Z,84.20
2023-02-04T03:03:36.555Z,84.03
2023-02-04T03:06:07.882Z,84.26
2023-02-04T03:08:35.883Z,84.29
2023-02-04T03:11:03.642Z,84.43
2023-02-04T03:13:31.549Z,84.38
2023-02-04T03:16:00.951Z,84.54
2023-02-04T03:18:28.646Z,84.40
2023-02-04T03:20:56.455Z,84.66
2023-02-04T03:23:24.266Z,84.38
2023-02-04T03:25:53.220Z,84.64
2023-02-04T03:28:21.131Z,84.48
2023-02-04T03:30:53.689Z,84.19
2023-02-04T03:33:23.273Z,84.47
2023-02-04T03:35:51.553Z,84.36
2023-02-04T03:38:20.010Z,84.75
2023-02-04T03:40:47.809Z,84.51
2023-02-04T03:43:15.473Z,84.64
2023-02-04T03:45:45.740Z,84.68
2023-02-04T03:48:13.737Z,84.57
2023-02-04T03:50:43.304Z,84.50
2023-02-04T03:53:11.076Z,84.72
2023-02-04T03:55:38.833Z,84.71
2023-02-04T03:58:06.931Z,84.71
2023-02-04T04:00:34.651Z,84.54
2023-02-04T04:03:02.464Z,84.52
2023-02-04T04:05:30.267Z,84.25
2023-02-04T04:07:59.510Z,84.38
2023-02-04T04:10:29.360Z,84.59
2023-02-04T04:12:57.381Z,84.51
2023-02-04T04:15:25.307Z,84.46
2023-02-04T04:17:53.030Z,84.29
2023-02-04T04:20:21.054Z,84.37
2023-02-04T04:22:48.687Z,84.44
2023-02-04T04:25:17.943Z,84.72
2023-02-04T04:27:45.633Z,84.79
2023-02-04T04:30:13.634Z,84.62
2023-02-04T04:32:41.358Z,84.56
2023-02-04T04:35:09.451Z,84.66
2023-02-04T04:37:37.183Z,84.67
2023-02-04T04:40:05.419Z,84.93
2023-02-04T04:42:34.439Z,85.13
2023-02-04T04:45:02.083Z,84.96
2023-02-04T04:47:29.747Z,84.95
2023-02-04T04:49:57.412Z,85.05
2023-02-04T04:52:25.121Z,85.24
2023-02-04T04:54:52.807Z,84.94
2023-02-04T04:57:20.505Z,84.90
2023-02-04T04:59:49.644Z,85.17
2023-02-04T05:02:17.322Z,85.21
2023-02-04T05:04:47.037Z,85.22
2023-02-04T05:07:14.815Z,85.13
2023-02-04T05:09:42.599Z,85.48
2023-02-04T05:12:10.332Z,85.61
2023-02-04T05:14:38.836Z,85.49
2023-02-04T05:17:08.192Z,85.62
2023-02-04T05:19:35.918Z,85.57
2023-02-04T05:22:03.574Z,85.43
2023-02-04T05:24:31.542Z,85.52
2023-02-04T05:26:59.323Z,85.60
2023-02-04T05:29:27.054Z,85.56
2023-02-04T05:31:54.831Z,85.66
2023-02-04T05:34:23.886Z,85.49
2023-02-04T05:36:51.647Z,85.75
2023-02-04T05:39:19.356Z,85.89
2023-02-04T05:41:47.082Z,85.92
2023-02-04T05:44:14.820Z,86.03
2023-02-04T05:46:42.652Z,85.88
2023-02-04T05:49:10.443Z,85.33
2023-02-04T05:51:39.573Z,85.64
2023-02-04T05:54:07.276Z,85.94
2023-02-04T05:56:34.954Z,85.49
2023-02-04T05:59:02.584Z,85.68
2023-02-04T06:01:30.311Z,85.66
2023-02-04T06:03:58.019Z,85.49
2023-02-04T06:06:25.833Z,85.56
2023-02-04T06:08:54.945Z,85.61
2023-02-04T06:11:22.695Z,85.31
2023-02-04T06:13:50.418Z,85.34
2023-02-04T06:16:18.119Z,85.45
2023-02-04T06:18:45.835Z,85.51
2023-02-04T06:21:13.539Z,85.69
2023-02-04T06:23:41.183Z,85.65
2023-02-04T06:26:10.356Z,85.45
2023-02-04T06:28:38.026Z,85.56
2023-02-04T06:31:06.145Z,85.69
2023-02-04T06:33:33.872Z,85.64
2023-02-04T06:36:01.644Z,85.97
2023-02-04T06:38:29.370Z,85.83
2023-02-04T06:40:57.347Z,85.91
2023-02-04T06:43:27.617Z,85.80
2023-02-04T06:45:55.432Z,85.78
2023-02-04T06:48:23.194Z,85.98
2023-02-04T06:50:50.919Z,85.96
2023-02-04T06:53:18.634Z,85.93
2023-02-04T06:55:46.325Z,85.75
2023-02-04T06:58:14.095Z,86.23
2023-02-04T07:00:43.219Z,85.77
2023-02-04T07:03:10.941Z,85.86
2023-02-04T07:05:38.633Z,85.98
2023-02-04T07:08:06.654Z,86.03
2023-02-04T07:10:34.666Z,86.20
2023-02-04T07:13:02.528Z,85.87
2023-02-04T07:15:31.510Z,86.18
2023-02-04T07:18:00.791Z,86.12
2023-02-04T07:20:28.559Z,86.14
2023-02-04T07:22:56.260Z,86.44
2023-02-04T07:25:24.030Z,86.49
2023-02-04T07:27:51.752Z,86.05
2023-02-04T07:30:19.552Z,86.34
2023-02-04T07:32:47.244Z,86.12
2023-02-04T07:35:17.647Z,86.18
2023-02-04T07:37:45.585Z,86.34
2023-02-04T07:40:13.898Z,86.29
2023-02-04T07:42:41.596Z,86.20
2023-02-04T07:45:10.072Z,86.59
2023-02-04T07:47:37.769Z,86.50
2023-02-04T07:50:05.977Z,86.49
2023-02-04T07:52:35.042Z,86.71
2023-02-04T07:55:02.756Z,86.76
2023-02-04T07:57:30.496Z,86.81
2023-02-04T07:59:59.159Z,87.04
2023-02-04T08:02:27.009Z,87.00
2023-02-04T08:04:54.795Z,86.93
2023-02-04T08:07:22.544Z,87.04
2023-02-04T08:09:51.632Z,86.85
2023-02-04T08:12:19.433Z,86.91
2023-02-04T08:14:47.116Z,86.88
2023-02-04T08:17:14.791Z,86.90
2023-02-04T08:19:42.520Z,86.78
2023-02-04T08:22:11.584Z,87.09
2023-02-04T08:24:39.249Z,87.09
2023-02-04T08:27:08.328Z,87.22
2023-02-04T08:29:36.019Z,86.99
2023-02-04T08:32:04.085Z,87.27
2023-02-04T08:34:32.347Z,87.37
2023-02-04T08:37:00.047Z,87.25
2023-02-04T08:39:27.754Z,87.21
2023-02-04T08:41:55.432Z,87.42
2023-02-04T08:44:24.550Z,87.44
2023-02-04T08:46:52.355Z,87.40
2023-02-04T08:49:20.023Z,87.67
2023-02-04T08:51:47.801Z,87.73
2023-02-04T08:54:15.546Z,87.71
2023-02-04T08:56:43.254Z,87.58
2023-02-04T08:59:10.945Z,87.75
2023-02-04T09:01:40.088Z,87.39
2023-02-04T09:04:07.785Z,87.92
2023-02-04T09:06:35.558Z,87.91
2023-02-04T09:09:03.243Z,87.71
2023-02-04T09:11:30.942Z,87.57
2023-02-04T09:13:58.607Z,87.52
2023-02-04T09:16:26.428Z,87.56
2023-02-04T09:18:55.953Z,87.60
2023-02-04T09:21:23.656Z,87.39
2023-02-04T09:23:51.378Z,87.43
2023-02-04T09:26:19.120Z,87.68
2023-02-04T09:28:47.904Z,87.77
2023-02-04T09:31:16.061Z,87.67
2023-02-04T09:33:43.871Z,87.12
2023-02-04T09:36:13.591Z,87.72
2023-02-04T09:38:41.313Z,88.48
2023-02-04T09:41:11.777Z,88.38
2023-02-04T09:43:41.920Z,87.95
2023-02-04T09:46:10.813Z,88.10
2023-02-04T09:48:38.796Z,87.78
2023-02-04T09:51:08.261Z,87.82
2023-02-04T09:53:37.920Z,88.56
2023-02-04T09:56:06.327Z,87.46
2023-02-04T09:58:35.051Z,86.78
2023-02-04T10:01:10.461Z,87.00
2023-02-04T10:03:38.261Z,87.55
2023-02-04T10:06:06.464Z,87.20
2023-02-04T10:08:34.901Z,87.12
2023-02-04T10:11:04.187Z,86.63
2023-02-04T10:13:33.262Z,87.19
2023-02-04T10:16:01.225Z,87.05
2023-02-04T10:18:30.612Z,86.36
2023-02-04T10:20:59.192Z,86.50
2023-02-04T10:23:26.990Z,86.44
2023-02-04T10:25:54.702Z,86.65
2023-02-04T10:28:34.684Z,86.44
2023-02-04T10:31:02.751Z,85.93
2023-02-04T10:33:31.835Z,84.78
2023-02-04T10:35:59.828Z,85.38
2023-02-04T10:38:27.801Z,85.47
2023-02-04T10:41:02.547Z,86.18
2023-02-04T10:43:31.786Z,86.70
2023-02-04T10:46:01.035Z,86.90
2023-02-04T10:48:30.123Z,86.54
2023-02-04T10:50:58.459Z,86.68
2023-02-04T10:53:44.078Z,86.11
2023-02-04T10:56:17.715Z,85.60
2023-02-04T10:58:46.940Z,85.16
2023-02-04T11:01:16.698Z,85.36
2023-02-04T11:03:47.772Z,84.39
2023-02-04T11:06:20.527Z,85.62
2023-02-04T11:08:48.552Z,84.80
2023-02-04T11:11:18.826Z,83.96
2023-02-04T11:14:02.076Z,83.68
2023-02-04T11:16:32.850Z,83.58
2023-02-04T11:19:02.554Z,84.62
2023-02-04T11:21:42.903Z,83.74
2023-02-04T11:24:25.477Z,82.59
2023-02-04T11:26:54.606Z,83.23
2023-02-04T11:29:34.876Z,82.07
2023-02-04T11:32:05.532Z,81.43
2023-02-04T11:34:46.795Z,81.30
2023-02-04T11:37:36.757Z,81.57
2023-02-04T11:40:18.464Z,83.83
2023-02-04T11:42:46.263Z,84.31
2023-02-04T11:45:17.976Z,83.75
2023-02-04T11:47:45.832Z,84.82
2023-02-04T11:50:17.441Z,82.04
2023-02-04T11:52:45.148Z,79.97
2023-02-04T11:55:13.731Z,77.97
2023-02-04T11:57:42.274Z,77.91
2023-02-04T12:00:16.537Z,78.59
2023-02-04T12:02:46.329Z,78.91
2023-02-04T12:05:15.842Z,78.54
2023-02-04T12:07:44.086Z,79.53
2023-02-04T12:10:14.931Z,78.23
2023-02-04T12:12:44.944Z,78.73
2023-02-04T12:15:19.612Z,79.23
2023-02-04T12:17:47.459Z,79.32
2023-02-04T12:20:15.793Z,80.15
2023-02-04T12:22:43.778Z,80.20
2023-02-04T12:25:16.792Z,80.06
2023-02-04T12:27:44.630Z,79.84
2023-02-04T12:30:13.551Z,79.65
2023-02-04T12:32:42.721Z,80.22
2023-02-04T12:35:10.467Z,80.56
2023-02-04T12:37:38.200Z,80.60
2023-02-04T12:40:06.915Z,81.02
2023-02-04T12:42:34.677Z,80.17
2023-02-04T12:45:02.383Z,80.51
2023-02-04T12:47:30.110Z,80.61
2023-02-04T12:49:59.200Z,80.62
2023-02-04T12:52:26.986Z,81.01
2023-02-04T12:54:54.705Z,80.39
2023-02-04T12:57:22.419Z,80.59
2023-02-04T12:59:50.275Z,80.88
2023-02-04T13:02:18.028Z,80.69
2023-02-04T13:04:45.907Z,80.90
2023-02-04T13:07:15.005Z,81.60
2023-02-04T13:09:42.729Z,80.85
2023-02-04T13:12:10.444Z,79.73
2023-02-04T13:14:38.181Z,81.45
2023-02-04T13:17:05.865Z,81.80
2023-02-04T13:19:33.628Z,82.67
2023-02-04T13:22:01.583Z,82.91
2023-02-04T13:24:30.845Z,83.92
2023-02-04T13:26:58.570Z,83.49
2023-02-04T13:29:26.705Z,82.53
2023-02-04T13:31:54.552Z,79.97
2023-02-04T13:34:22.333Z,79.19
2023-02-04T13:36:50.074Z,79.69
2023-02-04T13:39:17.829Z,77.67
2023-02-04T13:41:47.338Z,78.72
2023-02-04T13:44:15.052Z,78.48
2023-02-04T13:46:42.849Z,78.26
2023-02-04T13:49:10.562Z,78.51
2023-02-04T13:51:38.331Z,77.50
2023-02-04T13:54:06.156Z,77.07
2023-02-04T13:56:33.968Z,77.22
2023-02-04T13:59:03.085Z,76.78
2023-02-04T14:01:31.346Z,76.74
2023-02-04T14:03:59.127Z,75.12
2023-02-04T14:06:33.281Z,75.71
2023-02-04T14:09:01.287Z,77.20
2023-02-04T14:11:29.644Z,73.90
2023-02-04T14:13:57.640Z,73.18
2023-02-04T14:16:26.952Z,73.58
2023-02-04T14:18:54.810Z,73.86
2023-02-04T14:21:23.216Z,76.04
2023-02-04T14:23:51.030Z,73.57
2023-02-04T14:26:18.766Z,73.19
2023-02-04T14:28:46.640Z,74.63
2023-02-04T14:31:14.373Z,73.09
2023-02-04T14:33:43.664Z,73.65
2023-02-04T14:36:11.731Z,72.44
2023-02-04T14:38:40.462Z,73.69
2023-02-04T14:41:08.241Z,73.11
2023-02-04T14:43:37.294Z,73.17
2023-02-04T14:46:06.024Z,73.63
2023-02-04T14:48:34.317Z,74.79
2023-02-04T14:51:03.410Z,75.43
2023-02-04T14:53:31.482Z,74.63
2023-02-04T14:55:59.191Z,73.07
2023-02-04T14:58:28.050Z,74.44
2023-02-04T15:00:55.989Z,74.78
2023-02-04T15:03:23.963Z,74.96
2023-02-04T15:05:51.810Z,75.07
2023-02-04T15:08:21.058Z,75.47
2023-02-04T15:10:48.817Z,75.61
2023-02-04T15:13:16.666Z,76.13
2023-02-04T15:15:44.426Z,76.02
2023-02-04T15:18:13.904Z,75.18
2023-02-04T15:20:41.588Z,75.69
2023-02-04T15:23:13.020Z,74.44
2023-02-04T15:25:42.256Z,75.63
2023-02-04T15:28:12.036Z,75.53
2023-02-04T15:30:40.151Z,75.06
2023-02-04T15:33:07.935Z,74.79
2023-02-04T15:35:35.696Z,74.88
2023-02-04T15:38:03.351Z,73.51
2023-02-04T15:40:31.541Z,73.37
2023-02-04T15:43:01.061Z,74.03
2023-02-04T15:45:28.775Z,73.40
2023-02-04T15:47:56.599Z,74.58
2023-02-04T15:50:24.406Z,74.75
2023-02-04T15:52:52.133Z,74.44
2023-02-04T15:55:19.868Z,74.92
2023-02-04T15:57:47.502Z,75.02
2023-02-04T16:00:17.571Z,76.10
2023-02-04T16:02:45.466Z,76.33
2023-02-04T16:05:13.247Z,75.57
2023-02-04T16:07:41.120Z,75.79
2023-02-04T16:10:08.988Z,75.88
2023-02-04T16:12:36.731Z,75.76
2023-02-04T16:15:04.755Z,76.07
2023-02-04T16:17:33.931Z,76.88
2023-02-04T16:20:01.790Z,77.48
2023-02-04T16:22:29.653Z,77.06
2023-02-04T16:24:57.359Z,77.96
2023-02-04T16:27:25.459Z,78.27
2023-02-04T16:29:54.411Z,77.64
2023-02-04T16:32:23.094Z,76.20
2023-02-04T16:34:52.702Z,76.55
2023-02-04T16:37:20.599Z,76.32
2023-02-04T16:39:49.009Z,75.55
2023-02-04T16:42:16.810Z,75.52
2023-02-04T16:44:44.759Z,76.33
2023-02-04T16:47:12.732Z,76.68
2023-02-04T16:49:40.552Z,76.91
2023-02-04T16:52:09.620Z,77.51
2023-02-04T16:54:37.409Z,76.89
2023-02-04T16:57:05.274Z,77.02
2023-02-04T16:59:35.648Z,77.73
2023-02-04T17:02:03.422Z,78.13
2023-02-04T17:04:32.350Z,78.48
2023-02-04T17:07:00.652Z,78.49
2023-02-04T17:11:27.830Z,78.70
2023-02-04T17:13:55.563Z,78.82
2023-02-04T17:16:23.374Z,79.18
2023-02-04T17:18:51.260Z,78.93
2023-02-04T17:21:18.993Z,78.73
2023-02-04T17:23:46.707Z,79.09
2023-02-04T17:26:16.001Z,78.54
2023-02-04T17:28:43.700Z,78.90
2023-02-04T17:31:11.628Z,78.87
2023-02-04T17:33:39.444Z,78.34
2023-02-04T17:36:07.920Z,78.38
2023-02-04T17:39:40.305Z,78.58
2023-02-04T17:42:07.974Z,78.67
2023-02-04T17:44:35.636Z,79.25
2023-02-04T17:47:04.166Z,79.17
2023-02-04T17:49:33.654Z,78.98
2023-02-04T17:52:02.019Z,79.12
2023-02-04T17:54:29.831Z,78.74
2023-02-04T17:58:27.044Z,78.77
2023-02-04T18:00:57.723Z,78.89
2023-02-04T18:03:28.352Z,79.50
2023-02-04T18:05:57.298Z,79.62
2023-02-04T18:08:26.252Z,79.79
2023-02-04T18:12:30.653Z,79.23
2023-02-04T18:14:59.953Z,79.34
2023-02-04T18:17:29.470Z,79.03
2023-02-04T18:19:57.253Z,79.26
2023-02-04T18:22:28.376Z,79.20
2023-02-04T18:24:56.239Z,78.91
2023-02-04T18:27:25.341Z,78.78
2023-02-04T18:29:56.507Z,78.71
2023-02-04T18:32:25.579Z,79.36
2023-02-04T18:34:54.924Z,78.98
2023-02-04T18:37:30.636Z,78.41
2023-02-04T18:40:02.014Z,78.53
2023-02-04T18:42:29.703Z,78.86
2023-02-04T18:44:58.932Z,78.89
2023-02-04T18:47:31.573Z,78.60
2023-02-04T18:50:01.002Z,78.79
2023-02-04T18:52:30.313Z,78.96
2023-02-04T18:54:59.013Z,79.09
2023-02-04T18:57:35.758Z,79.37
2023-02-04T19:00:27.645Z,79.16
2023-02-04T19:02:57.315Z,79.00
2023-02-04T19:05:33.654Z,78.96
2023-02-04T19:08:28.107Z,79.03
2023-02-04T19:10:57.334Z,79.23
2023-02-04T19:13:27.506Z,79.20
2023-02-04T19:16:02.555Z,79.13
2023-02-04T19:18:34.404Z,79.87
2023-02-04T19:21:17.999Z,79.77
2023-02-04T19:23:45.984Z,79.91
2023-02-04T19:26:29.824Z,79.76
2023-02-04T19:28:57.938Z,79.78
2023-02-04T19:31:30.838Z,79.06
2023-02-04T19:33:58.568Z,79.03
2023-02-04T19:36:31.429Z,79.09
2023-02-04T19:39:01.243Z,79.01
2023-02-04T19:41:32.349Z,78.71
2023-02-04T19:44:29.250Z,78.94
2023-02-04T19:47:18.971Z,79.37
2023-02-04T19:49:46.697Z,79.60
2023-02-04T19:52:25.677Z,79.67
2023-02-04T19:54:53.370Z,80.02
2023-02-04T19:57:24.463Z,80.00
2023-02-04T19:59:52.913Z,80.09
2023-02-04T20:02:31.521Z,80.02
2023-02-04T20:04:59.291Z,80.43
2023-02-04T20:07:28.477Z,80.52
2023-02-04T20:10:04.578Z,80.49
2023-02-04T20:12:33.829Z,80.63
2023-02-04T20:15:02.392Z,80.72
2023-02-04T20:17:40.562Z,80.75
2023-02-04T20:20:23.832Z,81.11
2023-02-04T20:22:53.533Z,80.91
2023-02-04T20:25:35.860Z,80.91
2023-02-04T20:28:12.085Z,80.71
2023-02-04T20:30:43.000Z,81.07
2023-02-04T20:33:48.417Z,80.93
2023-02-04T20:36:43.139Z,80.57
2023-02-04T20:39:33.782Z,80.91
2023-02-04T20:42:22.043Z,80.88
2023-02-04T20:44:49.836Z,81.06
2023-02-04T20:47:19.578Z,80.42
2023-02-04T20:49:56.389Z,80.20
2023-02-04T20:53:03.513Z,80.15
2023-02-04T20:55:33.224Z,80.23
2023-02-04T20:58:15.864Z,80.47
2023-02-04T21:00:44.352Z,80.46
2023-02-04T21:03:22.253Z,80.72
2023-02-04T21:05:52.503Z,80.39
2023-02-04T21:08:29.641Z,80.44
2023-02-04T21:10:59.838Z,81.11
2023-02-04T21:13:27.727Z,81.16
2023-02-04T21:15:55.668Z,81.23
2023-02-04T21:18:23.402Z,81.37
2023-02-04T21:20:52.563Z,80.92
2023-02-04T21:23:20.735Z,81.56
2023-02-04T21:25:48.560Z,81.39
2023-02-04T21:28:16.572Z,81.21
2023-02-04T21:30:44.346Z,81.14
2023-02-04T21:33:12.113Z,81.48
2023-02-04T21:35:40.199Z,81.05
2023-02-04T21:38:09.479Z,81.04
2023-02-04T21:40:38.793Z,80.78
2023-02-04T21:43:08.189Z,80.99
2023-02-04T21:45:36.946Z,80.74
2023-02-04T21:48:05.513Z,80.90
2023-02-04T21:50:34.000Z,80.68
2023-02-04T21:53:01.703Z,80.93
2023-02-04T21:55:31.103Z,80.95
2023-02-04T21:57:58.995Z,81.34
2023-02-04T22:00:26.821Z,81.31
2023-02-04T22:02:55.080Z,81.60
2023-02-04T22:05:23.439Z,81.09
2023-02-04T22:07:51.461Z,81.43
2023-02-04T22:10:21.120Z,81.38
2023-02-04T22:12:50.409Z,81.37
2023-02-04T22:15:18.334Z,81.47
2023-02-04T22:17:46.421Z,81.55
2023-02-04T22:20:15.593Z,81.94
2023-02-04T22:22:44.331Z,81.84
2023-02-04T22:25:12.656Z,82.21
2023-02-04T22:27:40.483Z,82.40
2023-02-04T22:30:12.454Z,82.59
2023-02-04T22:32:40.499Z,82.46
2023-02-04T22:35:09.985Z,82.44
2023-02-04T22:37:37.841Z,82.45
2023-02-04T22:40:06.275Z,82.46
2023-02-04T22:42:34.005Z,82.71
2023-02-04T22:45:02.530Z,82.39
2023-02-04T22:47:31.979Z,82.51
2023-02-04T22:49:59.660Z,82.85
2023-02-04T22:52:27.444Z,83.17
2023-02-04T22:54:55.178Z,83.21
2023-02-04T22:57:22.821Z,83.54
2023-02-04T22:59:50.497Z,83.38
2023-02-04T23:02:18.347Z,83.44
2023-02-04T23:04:47.536Z,83.54
2023-02-04T23:07:15.246Z,83.76
2023-02-04T23:09:42.987Z,83.50
2023-02-04T23:12:13.821Z,83.83
2023-02-04T23:14:42.402Z,83.64
2023-02-04T23:17:10.455Z,83.78
2023-02-04T23:19:38.421Z,84.00
2023-02-04T23:22:07.879Z,84.09
2023-02-04T23:24:35.777Z,83.99
2023-02-04T23:27:04.160Z,84.42
2023-02-04T23:29:35.153Z,84.35
2023-02-04T23:32:03.378Z,84.44
2023-02-04T23:34:31.268Z,84.50
2023-02-04T23:36:58.935Z,84.86
2023-02-04T23:39:28.266Z,84.63
2023-02-04T23:41:56.013Z,84.60
2023-02-04T23:44:23.824Z,84.53
2023-02-04T23:46:51.812Z,84.71
2023-02-04T23:49:19.540Z,84.80
2023-02-04T23:51:47.292Z,84.95
2023-02-04T23:54:15.013Z,85.00
2023-02-04T23:56:44.135Z,84.96
2023-02-04T23:59:11.863Z,85.30
